createdAt,value
2022-09-28T00:00:28.245Z,10.78
2022-09-28T00:01:28.247Z,10.78
2022-09-28T00:02:28.418Z,10.78
2022-09-28T00:03:28.283Z,10.74
2022-09-28T00:04:28.255Z,10.74
2022-09-28T00:05:28.190Z,10.74
2022-09-28T00:06:28.166Z,10.75
2022-09-28T00:07:28.204Z,10.77
2022-09-28T00:08:28.227Z,10.77
2022-09-28T00:09:28.129Z,10.68
2022-09-28T00:10:28.125Z,10.77
2022-09-28T00:11:28.154Z,10.77
2022-09-28T00:12:28.124Z,10.78
2022-09-28T00:13:28.114Z,10.77
2022-09-28T00:14:28.068Z,10.75
2022-09-28T00:15:28.100Z,10.78
2022-09-28T00:16:28.105Z,10.74
2022-09-28T00:17:28.065Z,10.71
2022-09-28T00:18:28.062Z,10.75
2022-09-28T00:19:28.027Z,10.74
2022-09-28T00:20:28.069Z,10.83
2022-09-28T00:21:27.989Z,10.74
2022-09-28T00:22:27.992Z,10.62
2022-09-28T00:23:28.044Z,10.59
2022-09-28T00:24:27.999Z,10.60
2022-09-28T00:25:27.964Z,10.60
2022-09-28T00:26:27.939Z,10.60
2022-09-28T00:27:27.930Z,10.56
2022-09-28T00:28:28.120Z,10.53
2022-09-28T00:29:27.941Z,10.52
2022-09-28T00:30:27.888Z,10.46
2022-09-28T00:31:27.929Z,10.46
2022-09-28T00:32:27.897Z,10.49
2022-09-28T00:33:27.900Z,10.38
2022-09-28T00:34:27.847Z,10.40
2022-09-28T00:35:27.832Z,10.43
2022-09-28T00:36:27.816Z,10.41
2022-09-28T00:37:27.818Z,10.38
2022-09-28T00:38:27.811Z,10.38
2022-09-28T00:39:27.795Z,10.33
2022-09-28T00:40:27.846Z,10.30
2022-09-28T00:41:27.857Z,10.34
2022-09-28T00:42:27.754Z,10.34
2022-09-28T00:43:27.763Z,10.33
2022-09-28T00:44:27.749Z,10.31
2022-09-28T00:45:27.827Z,10.31
2022-09-28T00:46:27.724Z,10.31
2022-09-28T00:47:27.711Z,10.31
2022-09-28T00:48:27.703Z,10.27
2022-09-28T00:49:27.678Z,10.20
2022-09-28T00:50:27.660Z,10.19
2022-09-28T00:51:27.689Z,10.30
2022-09-28T00:52:27.655Z,10.16
2022-09-28T00:53:27.665Z,10.27
2022-09-28T00:54:27.621Z,10.13
2022-09-28T00:55:27.769Z,10.16
2022-09-28T00:56:27.613Z,10.20
2022-09-28T00:57:27.587Z,10.16
2022-09-28T00:58:27.587Z,10.26
2022-09-28T00:59:27.725Z,10.23
2022-09-28T01:00:27.582Z,10.16
2022-09-28T01:01:27.612Z,10.13
2022-09-28T01:02:27.607Z,10.16
2022-09-28T01:03:27.531Z,10.18
2022-09-28T01:04:29.959Z,10.22
2022-09-28T01:05:27.545Z,10.26
2022-09-28T01:06:27.504Z,10.13
2022-09-28T01:07:27.489Z,10.13
2022-09-28T01:08:27.468Z,10.28
2022-09-28T01:09:27.468Z,10.31
2022-09-28T01:10:27.485Z,10.26
2022-09-28T01:11:27.425Z,10.28
2022-09-28T01:12:27.422Z,10.23
2022-09-28T01:13:27.447Z,10.22
2022-09-28T01:14:27.399Z,10.31
2022-09-28T01:15:27.380Z,10.30
2022-09-28T01:16:27.527Z,10.33
2022-09-28T01:17:27.357Z,10.30
2022-09-28T01:18:27.367Z,10.31
2022-09-28T01:19:27.341Z,10.37
2022-09-28T01:20:27.423Z,10.34
2022-09-28T01:21:27.319Z,10.34
2022-09-28T01:22:27.309Z,10.28
2022-09-28T01:23:27.307Z,10.30
2022-09-28T01:24:27.404Z,10.23
2022-09-28T01:25:27.272Z,10.31
2022-09-28T01:26:27.292Z,10.31
2022-09-28T01:27:27.244Z,10.33
2022-09-28T01:28:27.266Z,10.31
2022-09-28T01:29:27.394Z,10.31
2022-09-28T01:30:27.222Z,10.28
2022-09-28T01:31:27.315Z,10.33
2022-09-28T01:32:27.205Z,10.23
2022-09-28T01:33:27.192Z,10.30
2022-09-28T01:34:27.182Z,10.34
2022-09-28T01:35:27.157Z,10.31
2022-09-28T01:36:27.136Z,10.27
2022-09-28T01:37:27.147Z,10.35
2022-09-28T01:38:27.140Z,10.35
2022-09-28T01:39:27.114Z,10.33
2022-09-28T01:40:27.140Z,10.28
2022-09-28T01:41:27.079Z,10.27
2022-09-28T01:42:27.117Z,10.33
2022-09-28T01:43:27.083Z,10.33
2022-09-28T01:44:27.051Z,10.34
2022-09-28T01:45:27.128Z,10.31
2022-09-28T01:46:27.035Z,10.33
2022-09-28T01:47:27.017Z,10.38
2022-09-28T01:48:27.054Z,10.33
2022-09-28T01:49:27.017Z,10.37
2022-09-28T01:50:26.991Z,10.28
2022-09-28T01:51:26.995Z,10.30
2022-09-28T01:52:26.958Z,10.31
2022-09-28T01:53:26.971Z,10.31
2022-09-28T01:54:26.940Z,10.33
2022-09-28T01:55:26.929Z,10.30
2022-09-28T01:56:26.916Z,10.31
2022-09-28T01:57:26.928Z,10.33
2022-09-28T01:58:26.939Z,10.28
2022-09-28T01:59:26.915Z,10.30
2022-09-28T02:00:26.926Z,10.31
2022-09-28T02:01:26.863Z,10.37
2022-09-28T02:02:26.878Z,10.31
2022-09-28T02:03:26.859Z,10.33
2022-09-28T02:04:26.845Z,10.33
2022-09-28T02:05:26.835Z,10.34
2022-09-28T02:06:26.811Z,10.34
2022-09-28T02:07:26.882Z,10.33
2022-09-28T02:08:26.835Z,10.37
2022-09-28T02:09:29.481Z,10.48
2022-09-28T02:10:27.786Z,10.35
2022-09-28T02:11:26.751Z,10.43
2022-09-28T02:12:26.737Z,10.38
2022-09-28T02:13:26.764Z,10.43
2022-09-28T02:14:26.716Z,10.41
2022-09-28T02:15:26.701Z,10.49
2022-09-28T02:16:26.760Z,10.54
2022-09-28T02:17:26.677Z,10.41
2022-09-28T02:18:26.705Z,10.52
2022-09-28T02:19:26.659Z,10.53
2022-09-28T02:20:26.708Z,10.38
2022-09-28T02:21:26.632Z,10.43
2022-09-28T02:22:26.620Z,10.48
2022-09-28T02:23:26.655Z,10.52
2022-09-28T02:24:26.607Z,10.41
2022-09-28T02:25:26.602Z,10.48
2022-09-28T02:26:26.627Z,10.49
2022-09-28T02:27:26.566Z,10.41
2022-09-28T02:28:26.585Z,10.46
2022-09-28T02:29:26.540Z,10.43
2022-09-28T02:30:26.533Z,10.45
2022-09-28T02:31:26.550Z,10.41
2022-09-28T02:32:26.525Z,10.46
2022-09-28T02:33:26.569Z,10.49
2022-09-28T02:34:26.514Z,10.43
2022-09-28T02:35:26.469Z,10.43
2022-09-28T02:36:26.480Z,10.40
2022-09-28T02:37:26.463Z,10.41
2022-09-28T02:38:26.464Z,10.45
2022-09-28T02:39:26.424Z,10.41
2022-09-28T02:40:26.496Z,10.45
2022-09-28T02:41:26.402Z,10.43
2022-09-28T02:42:26.402Z,10.38
2022-09-28T02:43:26.440Z,10.52
2022-09-28T02:44:26.510Z,10.48
2022-09-28T02:45:26.440Z,10.54
2022-09-28T02:46:26.355Z,10.48
2022-09-28T02:47:26.347Z,10.46
2022-09-28T02:48:42.668Z,10.45
2022-09-28T02:49:27.419Z,10.54
2022-09-28T02:50:26.336Z,10.45
2022-09-28T02:51:26.327Z,10.41
2022-09-28T02:52:26.309Z,10.38
2022-09-28T02:53:26.311Z,10.41
2022-09-28T02:54:26.274Z,10.35
2022-09-28T02:55:26.258Z,10.41
2022-09-28T02:56:26.240Z,10.37
2022-09-28T02:57:26.234Z,10.37
2022-09-28T02:58:26.319Z,10.45
2022-09-28T02:59:26.257Z,10.41
2022-09-28T03:00:26.208Z,10.41
2022-09-28T03:01:26.252Z,10.40
2022-09-28T03:02:26.256Z,10.40
2022-09-28T03:03:26.219Z,10.35
2022-09-28T03:04:26.150Z,10.43
2022-09-28T03:05:26.213Z,10.41
2022-09-28T03:06:26.133Z,10.41
2022-09-28T03:07:26.109Z,10.38
2022-09-28T03:08:26.143Z,10.38
2022-09-28T03:09:26.150Z,10.34
2022-09-28T03:10:26.078Z,10.40
2022-09-28T03:11:26.062Z,10.30
2022-09-28T03:12:26.091Z,10.37
2022-09-28T03:13:26.060Z,10.31
2022-09-28T03:14:26.032Z,10.33
2022-09-28T03:15:26.078Z,10.33
2022-09-28T03:16:26.036Z,10.33
2022-09-28T03:17:26.020Z,10.40
2022-09-28T03:18:26.003Z,10.30
2022-09-28T03:19:25.976Z,10.33
2022-09-28T03:20:26.003Z,10.33
2022-09-28T03:21:25.952Z,10.31
2022-09-28T03:22:25.944Z,10.28
2022-09-28T03:23:25.942Z,10.37
2022-09-28T03:24:25.939Z,10.30
2022-09-28T03:25:25.920Z,10.28
2022-09-28T03:26:25.893Z,10.16
2022-09-28T03:27:25.919Z,10.19
2022-09-28T03:28:25.906Z,10.23
2022-09-28T03:29:25.862Z,10.23
2022-09-28T03:30:25.843Z,10.12
2022-09-28T03:31:25.892Z,10.08
2022-09-28T03:32:25.836Z,10.16
2022-09-28T03:33:25.874Z,10.13
2022-09-28T03:34:25.802Z,10.13
2022-09-28T03:35:25.800Z,10.10
2022-09-28T03:36:25.779Z,10.13
2022-09-28T03:37:25.770Z,10.09
2022-09-28T03:38:25.770Z,10.10
2022-09-28T03:39:25.780Z,10.10
2022-09-28T03:40:25.803Z,10.01
2022-09-28T03:41:25.723Z,10.10
2022-09-28T03:42:25.726Z,10.06
2022-09-28T03:43:25.714Z,10.04
2022-09-28T03:44:25.689Z,10.00
2022-09-28T03:45:25.721Z,9.97
2022-09-28T03:46:25.710Z,9.97
2022-09-28T03:47:25.652Z,10.00
2022-09-28T03:48:29.902Z,9.98
2022-09-28T03:49:26.630Z,10.00
2022-09-28T03:50:25.619Z,10.00
2022-09-28T03:51:25.608Z,9.91
2022-09-28T03:52:25.616Z,10.00
2022-09-28T03:53:25.629Z,9.95
2022-09-28T03:54:25.578Z,9.88
2022-09-28T03:55:25.601Z,9.93
2022-09-28T03:56:25.587Z,10.00
2022-09-28T03:57:25.551Z,9.93
2022-09-28T03:58:25.551Z,9.95
2022-09-28T03:59:25.620Z,9.93
2022-09-28T04:00:25.510Z,9.85
2022-09-28T04:01:25.609Z,9.93
2022-09-28T04:02:25.538Z,9.91
2022-09-28T04:03:25.492Z,9.86
2022-09-28T04:04:25.511Z,9.86
2022-09-28T04:05:25.456Z,9.94
2022-09-28T04:06:25.464Z,9.93
2022-09-28T04:07:29.041Z,9.91
2022-09-28T04:08:26.484Z,9.91
2022-09-28T04:09:25.408Z,9.91
2022-09-28T04:10:25.394Z,9.95
2022-09-28T04:11:25.436Z,9.90
2022-09-28T04:12:25.409Z,9.88
2022-09-28T04:13:25.386Z,9.79
2022-09-28T04:14:25.351Z,9.93
2022-09-28T04:15:25.339Z,9.83
2022-09-28T04:16:25.372Z,9.83
2022-09-28T04:17:25.358Z,9.80
2022-09-28T04:18:25.333Z,9.85
2022-09-28T04:19:25.293Z,9.85
2022-09-28T04:20:25.281Z,9.79
2022-09-28T04:21:25.278Z,9.72
2022-09-28T04:22:25.256Z,9.73
2022-09-28T04:23:25.257Z,9.76
2022-09-28T04:24:25.276Z,9.70
2022-09-28T04:25:25.220Z,9.65
2022-09-28T04:26:25.220Z,9.69
2022-09-28T04:27:25.202Z,9.69
2022-09-28T04:28:25.229Z,9.67
2022-09-28T04:29:25.185Z,9.72
2022-09-28T04:30:25.193Z,9.67
2022-09-28T04:31:25.201Z,9.65
2022-09-28T04:32:25.143Z,9.65
2022-09-28T04:33:25.152Z,9.70
2022-09-28T04:34:25.122Z,9.75
2022-09-28T04:35:25.114Z,9.69
2022-09-28T04:36:25.143Z,9.65
2022-09-28T04:37:25.092Z,9.79
2022-09-28T04:38:48.457Z,9.79
2022-09-28T04:39:26.076Z,9.76
2022-09-28T04:40:25.108Z,9.69
2022-09-28T04:41:25.057Z,9.70
2022-09-28T04:42:25.101Z,9.76
2022-09-28T04:43:25.039Z,9.67
2022-09-28T04:44:25.044Z,9.70
2022-09-28T04:45:25.130Z,9.64
2022-09-28T04:46:24.995Z,9.64
2022-09-28T04:47:24.980Z,9.64
2022-09-28T04:48:25.120Z,9.69
2022-09-28T04:49:24.961Z,9.69
2022-09-28T04:50:24.951Z,9.76
2022-09-28T04:51:24.936Z,9.67
2022-09-28T04:52:24.920Z,9.65
2022-09-28T04:53:24.924Z,9.77
2022-09-28T04:54:24.912Z,9.80
2022-09-28T04:55:24.908Z,9.79
2022-09-28T04:56:24.876Z,9.77
2022-09-28T04:57:24.898Z,9.75
2022-09-28T04:58:24.887Z,9.80
2022-09-28T04:59:24.854Z,9.79
2022-09-28T05:00:24.853Z,9.75
2022-09-28T05:01:24.892Z,9.75
2022-09-28T05:02:24.950Z,9.83
2022-09-28T05:03:24.812Z,9.83
2022-09-28T05:04:26.177Z,9.79
2022-09-28T05:05:24.871Z,9.77
2022-09-28T05:06:24.765Z,9.86
2022-09-28T05:07:24.754Z,9.80
2022-09-28T05:08:24.767Z,9.77
2022-09-28T05:09:24.749Z,9.88
2022-09-28T05:10:24.730Z,9.85
2022-09-28T05:11:24.720Z,9.80
2022-09-28T05:12:24.719Z,9.83
2022-09-28T05:13:24.698Z,9.86
2022-09-28T05:14:24.705Z,9.88
2022-09-28T05:15:24.669Z,9.90
2022-09-28T05:16:24.724Z,9.85
2022-09-28T05:17:24.666Z,9.88
2022-09-28T05:18:24.648Z,9.94
2022-09-28T05:19:24.624Z,9.86
2022-09-28T05:20:24.610Z,9.82
2022-09-28T05:21:24.605Z,9.88
2022-09-28T05:22:24.587Z,9.95
2022-09-28T05:23:24.600Z,9.91
2022-09-28T05:24:24.560Z,9.93
2022-09-28T05:25:24.559Z,9.91
2022-09-28T05:26:24.546Z,9.88
2022-09-28T05:27:24.524Z,9.91
2022-09-28T05:28:24.535Z,10.01
2022-09-28T05:29:24.509Z,10.02
2022-09-28T05:30:24.491Z,9.97
2022-09-28T05:31:24.526Z,10.00
2022-09-28T05:32:24.518Z,9.97
2022-09-28T05:33:24.472Z,9.93
2022-09-28T05:34:24.447Z,9.98
2022-09-28T05:35:24.437Z,9.97
2022-09-28T05:36:24.432Z,10.00
2022-09-28T05:37:24.418Z,9.90
2022-09-28T05:38:24.418Z,9.97
2022-09-28T05:39:24.394Z,9.97
2022-09-28T05:40:24.461Z,10.00
2022-09-28T05:41:24.368Z,9.98
2022-09-28T05:42:24.359Z,10.04
2022-09-28T05:43:24.362Z,9.95
2022-09-28T05:44:24.339Z,9.98
2022-09-28T05:45:24.327Z,10.00
2022-09-28T05:46:24.348Z,9.97
2022-09-28T05:47:24.312Z,10.02
2022-09-28T05:48:24.334Z,10.01
2022-09-28T05:49:24.278Z,10.06
2022-09-28T05:50:24.267Z,10.00
2022-09-28T05:51:24.276Z,9.98
2022-09-28T05:52:24.247Z,10.00
2022-09-28T05:53:24.246Z,10.01
2022-09-28T05:54:24.225Z,9.98
2022-09-28T05:55:24.254Z,10.01
2022-09-28T05:56:24.206Z,10.02
2022-09-28T05:57:24.188Z,10.02
2022-09-28T05:58:24.193Z,10.01
2022-09-28T05:59:24.167Z,10.00
2022-09-28T06:00:24.162Z,10.06
2022-09-28T06:01:24.230Z,10.02
2022-09-28T06:02:24.193Z,9.97
2022-09-28T06:03:24.136Z,9.95
2022-09-28T06:04:24.132Z,10.06
2022-09-28T06:05:24.103Z,10.00
2022-09-28T06:06:24.088Z,10.01
2022-09-28T06:07:24.076Z,10.01
2022-09-28T06:08:24.091Z,10.01
2022-09-28T06:09:26.024Z,10.09
2022-09-28T06:10:24.063Z,10.10
2022-09-28T06:11:24.043Z,10.09
2022-09-28T06:12:24.027Z,10.08
2022-09-28T06:13:24.026Z,10.12
2022-09-28T06:14:24.008Z,10.13
2022-09-28T06:15:23.989Z,10.13
2022-09-28T06:16:24.047Z,10.13
2022-09-28T06:17:23.964Z,10.16
2022-09-28T06:18:23.965Z,10.15
2022-09-28T06:19:23.945Z,10.13
2022-09-28T06:20:23.956Z,10.12
2022-09-28T06:21:23.914Z,10.12
2022-09-28T06:22:23.905Z,10.08
2022-09-28T06:23:23.911Z,10.09
2022-09-28T06:24:23.882Z,10.10
2022-09-28T06:25:23.871Z,10.09
2022-09-28T06:26:23.861Z,10.09
2022-09-28T06:27:23.848Z,10.13
2022-09-28T06:28:23.854Z,10.16
2022-09-28T06:29:23.829Z,10.10
2022-09-28T06:30:23.865Z,10.15
2022-09-28T06:31:23.935Z,10.16
2022-09-28T06:32:23.797Z,10.16
2022-09-28T06:33:23.795Z,10.18
2022-09-28T06:34:23.779Z,10.13
2022-09-28T06:35:23.755Z,10.16
2022-09-28T06:36:23.772Z,10.27
2022-09-28T06:37:23.735Z,10.16
2022-09-28T06:38:23.744Z,10.19
2022-09-28T06:39:23.710Z,10.15
2022-09-28T06:40:23.775Z,10.18
2022-09-28T06:41:23.693Z,10.15
2022-09-28T06:42:23.694Z,10.10
2022-09-28T06:43:23.682Z,10.12
2022-09-28T06:44:23.668Z,10.12
2022-09-28T06:45:23.642Z,10.16
2022-09-28T06:46:23.761Z,10.16
2022-09-28T06:47:23.626Z,10.15
2022-09-28T06:48:23.627Z,10.15
2022-09-28T06:49:23.604Z,10.18
2022-09-28T06:50:23.588Z,10.13
2022-09-28T06:51:23.580Z,10.15
2022-09-28T06:52:23.618Z,10.16
2022-09-28T06:53:23.568Z,10.18
2022-09-28T06:54:23.544Z,10.19
2022-09-28T06:55:23.528Z,10.28
2022-09-28T06:56:23.520Z,10.26
2022-09-28T06:57:23.508Z,10.31
2022-09-28T06:58:23.518Z,10.27
2022-09-28T06:59:23.489Z,10.33
2022-09-28T07:00:23.477Z,10.31
2022-09-28T07:01:23.504Z,10.30
2022-09-28T07:02:23.548Z,10.31
2022-09-28T07:03:23.464Z,10.31
2022-09-28T07:04:23.433Z,10.35
2022-09-28T07:05:23.420Z,10.33
2022-09-28T07:06:23.409Z,10.38
2022-09-28T07:07:23.405Z,10.38
2022-09-28T07:08:23.417Z,10.48
2022-09-28T07:09:32.150Z,10.45
2022-09-28T07:10:24.363Z,10.43
2022-09-28T07:11:23.354Z,10.41
2022-09-28T07:12:23.338Z,10.54
2022-09-28T07:13:47.564Z,10.41
2022-09-28T07:14:41.984Z,10.49
2022-09-28T07:15:24.321Z,10.54
2022-09-28T07:16:27.260Z,10.52
2022-09-28T07:17:23.336Z,10.52
2022-09-28T07:18:23.312Z,10.60
2022-09-28T07:19:23.265Z,10.54
2022-09-28T07:20:23.264Z,10.60
2022-09-28T07:21:29.906Z,10.56
2022-09-28T07:22:39.757Z,10.53
2022-09-28T07:23:24.227Z,10.64
2022-09-28T07:24:23.229Z,10.64
2022-09-28T07:25:23.194Z,10.59
2022-09-28T07:26:24.584Z,10.64
2022-09-28T07:27:28.150Z,10.72
2022-09-28T07:28:24.178Z,10.70
2022-09-28T07:29:23.148Z,10.78
2022-09-28T07:30:23.194Z,10.77
2022-09-28T07:31:23.205Z,10.67
2022-09-28T07:32:23.163Z,10.75
2022-09-28T07:33:23.114Z,10.71
2022-09-28T07:34:23.099Z,10.78
2022-09-28T07:35:23.084Z,10.74
2022-09-28T07:36:23.074Z,10.71
2022-09-28T07:37:23.060Z,10.71
2022-09-28T07:38:23.055Z,10.78
2022-09-28T07:39:23.036Z,10.85
2022-09-28T07:40:23.095Z,10.85
2022-09-28T07:41:23.012Z,10.87
2022-09-28T07:42:23.002Z,10.92
2022-09-28T07:43:23.013Z,10.90
2022-09-28T07:44:22.979Z,10.86
2022-09-28T07:45:22.971Z,10.93
2022-09-28T07:46:23.011Z,10.93
2022-09-28T07:47:22.953Z,10.97
2022-09-28T07:48:22.960Z,10.96
2022-09-28T07:49:22.925Z,11.01
2022-09-28T07:50:22.936Z,11.04
2022-09-28T07:51:22.897Z,11.03
2022-09-28T07:52:22.886Z,11.07
2022-09-28T07:53:22.905Z,11.10
2022-09-28T07:54:22.862Z,11.19
2022-09-28T07:55:22.859Z,11.19
2022-09-28T07:56:22.860Z,11.12
2022-09-28T07:57:22.853Z,11.23
2022-09-28T07:58:22.852Z,11.30
2022-09-28T07:59:22.810Z,11.29
2022-09-28T08:00:22.797Z,11.35
2022-09-28T08:01:22.865Z,11.40
2022-09-28T08:02:22.865Z,11.38
2022-09-28T08:03:22.863Z,11.40
2022-09-28T08:04:22.770Z,11.44
2022-09-28T08:05:22.754Z,11.46
2022-09-28T08:06:22.801Z,11.47
2022-09-28T08:07:24.086Z,11.50
2022-09-28T08:08:22.780Z,11.40
2022-09-28T08:09:22.712Z,11.53
2022-09-28T08:10:22.714Z,11.43
2022-09-28T08:11:22.667Z,11.53
2022-09-28T08:12:22.700Z,11.62
2022-09-28T08:13:26.718Z,11.63
2022-09-28T08:14:22.671Z,11.56
2022-09-28T08:15:22.949Z,11.63
2022-09-28T08:16:22.764Z,11.68
2022-09-28T08:17:22.647Z,11.77
2022-09-28T08:18:22.724Z,11.77
2022-09-28T08:19:22.590Z,11.84
2022-09-28T08:20:22.657Z,11.87
2022-09-28T08:21:22.589Z,11.88
2022-09-28T08:22:22.598Z,11.91
2022-09-28T08:23:22.661Z,11.87
2022-09-28T08:24:22.565Z,12.02
2022-09-28T08:25:22.535Z,11.96
2022-09-28T08:26:22.541Z,11.81
2022-09-28T08:27:22.530Z,12.06
2022-09-28T08:28:22.542Z,12.03
2022-09-28T08:29:22.491Z,12.13
2022-09-28T08:30:22.633Z,12.10
2022-09-28T08:31:22.722Z,12.03
2022-09-28T08:32:22.490Z,12.07
2022-09-28T08:33:22.537Z,12.09
2022-09-28T08:34:22.450Z,12.05
2022-09-28T08:35:22.414Z,12.09
2022-09-28T08:36:22.405Z,12.10
2022-09-28T08:37:22.406Z,12.06
2022-09-28T08:38:22.448Z,12.13
2022-09-28T08:39:22.398Z,12.03
2022-09-28T08:40:22.623Z,12.27
2022-09-28T08:41:22.370Z,12.13
2022-09-28T08:42:22.337Z,12.18
2022-09-28T08:43:22.432Z,12.25
2022-09-28T08:44:22.351Z,12.21
2022-09-28T08:45:23.272Z,12.20
2022-09-28T08:46:25.036Z,12.22
2022-09-28T08:47:22.319Z,12.21
2022-09-28T08:48:22.282Z,12.20
2022-09-28T08:49:26.417Z,12.20
2022-09-28T08:50:22.266Z,12.20
2022-09-28T08:51:22.264Z,12.20
2022-09-28T08:52:22.235Z,12.22
2022-09-28T08:53:22.309Z,12.18
2022-09-28T08:54:22.237Z,12.20
2022-09-28T08:55:22.207Z,12.17
2022-09-28T08:56:22.195Z,12.22
2022-09-28T08:57:22.221Z,12.24
2022-09-28T08:58:22.187Z,12.24
2022-09-28T08:59:22.180Z,12.22
2022-09-28T09:00:22.192Z,12.27
2022-09-28T09:01:22.157Z,12.25
2022-09-28T09:02:22.180Z,12.30
2022-09-28T09:03:22.158Z,12.27
2022-09-28T09:04:22.108Z,12.35
2022-09-28T09:05:22.090Z,12.28
2022-09-28T09:06:22.091Z,12.38
2022-09-28T09:07:22.079Z,12.38
2022-09-28T09:08:22.159Z,12.39
2022-09-28T09:09:22.043Z,12.36
2022-09-28T09:10:22.021Z,12.35
2022-09-28T09:11:22.051Z,12.38
2022-09-28T09:12:22.045Z,12.42
2022-09-28T09:13:22.086Z,12.39
2022-09-28T09:14:21.980Z,12.40
2022-09-28T09:15:21.995Z,12.38
2022-09-28T09:16:22.028Z,12.33
2022-09-28T09:17:21.961Z,12.27
2022-09-28T09:18:22.034Z,12.35
2022-09-28T09:19:21.953Z,12.33
2022-09-28T09:20:21.913Z,12.33
2022-09-28T09:21:21.899Z,12.35
2022-09-28T09:22:21.915Z,12.35
2022-09-28T09:23:21.928Z,12.35
2022-09-28T09:24:21.867Z,12.33
2022-09-28T09:25:21.866Z,12.32
2022-09-28T09:26:25.491Z,12.42
2022-09-28T09:27:21.837Z,12.45
2022-09-28T09:28:21.876Z,12.50
2022-09-28T09:29:21.828Z,12.51
2022-09-28T09:30:21.843Z,12.58
2022-09-28T09:31:22.912Z,12.58
2022-09-28T09:32:21.806Z,12.57
2022-09-28T09:33:21.860Z,12.64
2022-09-28T09:34:21.755Z,12.68
2022-09-28T09:35:25.532Z,12.65
2022-09-28T09:36:22.751Z,12.73
2022-09-28T09:37:21.719Z,12.75
2022-09-28T09:38:21.720Z,12.88
2022-09-28T09:39:21.697Z,12.90
2022-09-28T09:40:21.728Z,12.94
2022-09-28T09:41:21.669Z,12.96
2022-09-28T09:42:21.683Z,13.03
2022-09-28T09:43:21.662Z,13.03
2022-09-28T09:44:21.655Z,13.11
2022-09-28T09:45:21.623Z,13.11
2022-09-28T09:46:21.706Z,13.09
2022-09-28T09:47:21.626Z,13.11
2022-09-28T09:48:21.660Z,13.13
2022-09-28T09:49:21.577Z,13.18
2022-09-28T09:50:21.571Z,13.31
2022-09-28T09:51:21.558Z,13.38
2022-09-28T09:52:21.612Z,13.53
2022-09-28T09:53:21.552Z,13.52
2022-09-28T09:54:21.526Z,13.60
2022-09-28T09:55:23.348Z,13.67
2022-09-28T09:56:21.517Z,13.71
2022-09-28T09:57:21.496Z,13.74
2022-09-28T09:58:21.543Z,13.74
2022-09-28T09:59:21.457Z,13.77
2022-09-28T10:00:21.459Z,13.77
2022-09-28T10:01:21.526Z,13.72
2022-09-28T10:02:36.295Z,13.67
2022-09-28T10:03:21.440Z,13.56
2022-09-28T10:04:21.460Z,13.53
2022-09-28T10:05:21.390Z,13.53
2022-09-28T10:06:21.388Z,13.60
2022-09-28T10:07:21.381Z,13.68
2022-09-28T10:08:21.351Z,13.75
2022-09-28T10:09:21.408Z,13.67
2022-09-28T10:10:21.340Z,13.70
2022-09-28T10:11:21.326Z,13.65
2022-09-28T10:12:21.319Z,13.64
2022-09-28T10:13:21.309Z,13.55
2022-09-28T10:14:21.316Z,13.55
2022-09-28T10:15:21.311Z,13.50
2022-09-28T10:16:21.356Z,13.45
2022-09-28T10:17:21.259Z,13.37
2022-09-28T10:18:21.250Z,13.46
2022-09-28T10:19:21.245Z,13.43
2022-09-28T10:20:21.264Z,13.46
2022-09-28T10:21:21.214Z,13.49
2022-09-28T10:22:21.206Z,13.41
2022-09-28T10:23:21.197Z,13.49
2022-09-28T10:24:21.186Z,13.50
2022-09-28T10:25:21.188Z,13.37
2022-09-28T10:26:24.898Z,13.31
2022-09-28T10:27:21.150Z,13.33
2022-09-28T10:28:21.147Z,13.38
2022-09-28T10:29:21.125Z,13.38
2022-09-28T10:30:21.113Z,13.31
2022-09-28T10:31:21.109Z,13.38
2022-09-28T10:32:21.121Z,13.26
2022-09-28T10:33:21.080Z,13.21
2022-09-28T10:34:21.068Z,13.24
2022-09-28T10:35:21.059Z,13.19
2022-09-28T10:36:21.067Z,13.22
2022-09-28T10:37:21.038Z,13.33
2022-09-28T10:38:21.038Z,13.21
2022-09-28T10:39:21.006Z,13.24
2022-09-28T10:40:21.046Z,13.26
2022-09-28T10:41:20.987Z,13.18
2022-09-28T10:42:20.974Z,13.12
2022-09-28T10:43:20.963Z,13.13
2022-09-28T10:44:20.965Z,13.12
2022-09-28T10:45:20.940Z,13.12
2022-09-28T10:46:21.096Z,13.15
2022-09-28T10:47:20.916Z,13.13
2022-09-28T10:48:20.910Z,13.18
2022-09-28T10:49:20.894Z,13.11
2022-09-28T10:50:20.895Z,13.08
2022-09-28T10:51:20.871Z,12.98
2022-09-28T10:52:20.881Z,13.06
2022-09-28T10:53:20.849Z,13.05
2022-09-28T10:54:20.845Z,13.03
2022-09-28T10:55:20.846Z,13.09
2022-09-28T10:56:20.813Z,13.06
2022-09-28T10:57:20.807Z,13.06
2022-09-28T10:58:20.798Z,13.05
2022-09-28T10:59:20.837Z,13.11
2022-09-28T11:00:20.881Z,13.18
2022-09-28T11:01:20.820Z,13.26
2022-09-28T11:02:20.803Z,13.29
2022-09-28T11:03:20.739Z,13.26
2022-09-28T11:04:20.727Z,13.30
2022-09-28T11:05:20.713Z,13.39
2022-09-28T11:06:20.708Z,13.39
2022-09-28T11:07:20.691Z,13.45
2022-09-28T11:08:20.703Z,13.46
2022-09-28T11:09:20.666Z,13.52
2022-09-28T11:10:20.661Z,13.55
2022-09-28T11:11:20.653Z,13.67
2022-09-28T11:12:20.646Z,13.64
2022-09-28T11:13:20.625Z,13.83
2022-09-28T11:14:20.618Z,13.80
2022-09-28T11:15:20.595Z,13.82
2022-09-28T11:16:20.647Z,13.88
2022-09-28T11:17:20.578Z,13.95
2022-09-28T11:18:20.559Z,13.93
2022-09-28T11:19:20.551Z,14.10
2022-09-28T11:20:26.140Z,14.07
2022-09-28T11:21:21.536Z,14.25
2022-09-28T11:22:20.520Z,14.37
2022-09-28T11:23:20.594Z,14.40
2022-09-28T11:24:20.856Z,14.56
2022-09-28T11:25:20.484Z,14.68
2022-09-28T11:26:20.476Z,14.81
2022-09-28T11:27:20.477Z,14.95
2022-09-28T11:28:20.454Z,15.03
2022-09-28T11:29:20.449Z,15.14
2022-09-28T11:30:20.537Z,15.28
2022-09-28T11:31:20.434Z,15.30
2022-09-28T11:32:20.407Z,15.35
2022-09-28T11:33:20.407Z,15.42
2022-09-28T11:34:27.774Z,15.46
2022-09-28T11:35:21.379Z,15.40
2022-09-28T11:36:20.362Z,15.43
2022-09-28T11:37:20.359Z,15.44
2022-09-28T11:38:20.344Z,15.44
2022-09-28T11:39:20.362Z,15.44
2022-09-28T11:40:20.415Z,15.33
2022-09-28T11:41:20.309Z,15.36
2022-09-28T11:42:20.293Z,15.30
2022-09-28T11:43:20.286Z,15.33
2022-09-28T11:44:20.284Z,15.25
2022-09-28T11:45:20.288Z,15.24
2022-09-28T11:46:20.316Z,15.14
2022-09-28T11:47:20.244Z,15.18
2022-09-28T11:48:20.264Z,15.12
2022-09-28T11:49:20.214Z,15.00
2022-09-28T11:50:24.169Z,14.99
2022-09-28T11:51:20.195Z,15.06
2022-09-28T11:52:20.235Z,15.06
2022-09-28T11:53:20.180Z,14.99
2022-09-28T11:54:20.269Z,14.97
2022-09-28T11:55:20.171Z,15.03
2022-09-28T11:56:20.161Z,15.00
2022-09-28T11:57:20.133Z,14.99
2022-09-28T11:58:20.121Z,15.03
2022-09-28T11:59:20.111Z,15.07
2022-09-28T12:00:20.194Z,15.00
2022-09-28T12:01:20.083Z,15.02
2022-09-28T12:02:20.215Z,14.99
2022-09-28T12:03:20.241Z,15.00
2022-09-28T12:04:20.051Z,15.00
2022-09-28T12:05:21.136Z,15.07
2022-09-28T12:06:20.045Z,15.07
2022-09-28T12:07:20.020Z,15.11
2022-09-28T12:08:20.008Z,15.19
2022-09-28T12:09:20.002Z,15.24
2022-09-28T12:10:19.980Z,15.21
2022-09-28T12:11:19.977Z,15.32
2022-09-28T12:12:19.989Z,15.33
2022-09-28T12:13:19.951Z,15.43
2022-09-28T12:14:19.949Z,15.39
2022-09-28T12:15:19.933Z,15.35
2022-09-28T12:17:20.952Z,15.25
2022-09-28T12:18:19.920Z,15.33
2022-09-28T12:19:20.079Z,15.39
2022-09-28T12:20:19.888Z,15.33
2022-09-28T12:21:19.859Z,15.21
2022-09-28T12:22:19.858Z,15.30
2022-09-28T12:23:19.858Z,15.35
2022-09-28T12:24:19.831Z,15.30
2022-09-28T12:25:19.824Z,15.19
2022-09-28T12:26:19.830Z,15.22
2022-09-28T12:27:19.799Z,15.12
2022-09-28T12:28:19.930Z,15.15
2022-09-28T12:29:19.903Z,15.21
2022-09-28T12:30:19.765Z,15.17
2022-09-28T12:31:19.814Z,15.12
2022-09-28T12:32:19.748Z,15.09
2022-09-28T12:33:19.727Z,14.91
2022-09-28T12:34:19.765Z,14.85
2022-09-28T12:35:19.717Z,14.84
2022-09-28T12:36:19.695Z,14.85
2022-09-28T12:37:19.709Z,14.79
2022-09-28T12:38:19.671Z,14.93
2022-09-28T12:39:30.836Z,14.81
2022-09-28T12:40:20.740Z,14.91
2022-09-28T12:41:19.645Z,14.84
2022-09-28T12:42:19.626Z,14.79
2022-09-28T12:43:19.618Z,14.74
2022-09-28T12:44:19.631Z,14.73
2022-09-28T12:45:19.613Z,14.68
2022-09-28T12:46:19.624Z,14.63
2022-09-28T12:47:19.578Z,14.62
2022-09-28T12:48:19.567Z,14.63
2022-09-28T12:50:38.153Z,14.51
2022-09-28T12:51:20.530Z,14.47
2022-09-28T12:52:19.548Z,14.50
2022-09-28T12:53:19.507Z,14.51
2022-09-28T12:54:19.695Z,14.48
2022-09-28T12:55:19.500Z,14.50
2022-09-28T12:56:21.614Z,14.47
2022-09-28T12:57:19.467Z,14.44
2022-09-28T12:58:19.453Z,14.50